Time;durP1;ratioP1;P1;durP2;ratioP2;P2;SDS_P1;SDS_P2;PMS_P1;PMS_P2;Temp;Humidity;BMP_temperature;BMP_pressure;BME280_temperature;BME280_humidity;BME280_pressure;Samples;Min_cycle;Max_cycle;Signal;HPM_P1;HPM_P2
2022/03/13 00:00:51;;;;;;;45.47;21.07;;;;;;;3.30;36.20;101202.53;4992576;28;98287;-90
2022/03/13 00:03:19;;;;;;;45.43;21.17;;;;;;;3.26;36.22;101208.50;4950054;28;97311;-88
2022/03/13 00:05:47;;;;;;;52.87;21.30;;;;;;;3.17;36.01;101193.72;4963970;28;97386;-89
2022/03/13 00:08:33;;;;;;;42.50;19.77;;;;;;;3.30;36.22;101203.38;4957192;28;101213;-89
2022/03/13 00:11:00;;;;;;;45.93;20.83;;;;;;;3.29;36.34;101211.16;4989646;28;101676;-89
2022/03/13 00:13:30;;;;;;;48.53;22.43;;;;;;;3.19;35.90;101171.25;4997513;28;96672;-90
2022/03/13 00:15:56;;;;;;;48.77;21.10;;;;;;;3.27;36.21;101212.88;4980545;28;96719;-89
2022/03/13 00:18:22;;;;;;;49.73;21.70;;;;;;;3.23;36.61;101205.88;4955472;28;101556;-90
2022/03/13 00:20:48;;;;;;;52.80;21.73;;;;;;;3.11;36.16;101191.97;4950234;28;101187;-89
2022/03/13 00:23:14;;;;;;;51.10;21.57;;;;;;;3.17;36.05;101198.91;4968933;28;96819;-90
2022/03/13 00:25:40;;;;;;;47.33;21.03;;;;;;;3.15;36.18;101191.13;4994620;28;96768;-89
2022/03/13 00:28:05;;;;;;;44.73;20.80;;;;;;;3.29;36.64;101199.06;4988896;28;97444;-89
2022/03/13 00:30:31;;;;;;;49.73;22.13;;;;;;;3.20;36.01;101183.41;4946440;28;99960;-90
2022/03/13 00:32:59;;;;;;;47.83;22.03;;;;;;;3.12;36.12;101175.53;4976491;28;96996;-90
2022/03/13 00:35:24;;;;;;;51.50;22.77;;;;;;;3.31;36.45;101199.06;4986965;28;96965;-89
2022/03/13 00:37:50;;;;;;;45.53;21.57;;;;;;;3.40;36.07;101192.25;4985059;28;98069;-89
2022/03/13 00:40:16;;;;;;;48.10;21.90;;;;;;;3.11;36.69;101197.16;5006666;28;100642;-89
2022/03/13 00:42:41;;;;;;;51.60;22.70;;;;;;;3.18;36.41;101192.88;4958722;28;97334;-88
2022/03/13 00:45:07;;;;;;;51.00;22.40;;;;;;;3.20;36.41;101192.88;4972940;28;97383;-90
2022/03/13 00:47:33;;;;;;;51.03;22.60;;;;;;;3.31;36.50;101186.94;5011371;28;97310;-89
2022/03/13 00:49:58;;;;;;;47.63;21.70;;;;;;;3.29;36.22;101195.59;4969534;28;101763;-90
2022/03/13 00:52:24;;;;;;;47.10;21.90;;;;;;;3.21;35.97;101190.31;4977401;28;96955;-90
2022/03/13 00:54:49;;;;;;;50.43;22.10;;;;;;;2.99;36.15;101177.97;4964749;28;97096;-88
2022/03/13 00:57:17;;;;;;;53.63;22.90;;;;;;;2.97;36.24;101166.72;4963818;28;98213;-90
2022/03/13 00:59:43;;;;;;;49.20;22.27;;;;;;;3.20;36.29;101192.88;4989531;28;98023;-90
2022/03/13 01:02:10;;;;;;;50.67;23.17;;;;;;;3.24;36.39;101189.50;4958798;28;96764;-89
2022/03/13 01:04:43;;;;;;;49.90;22.90;;;;;;;3.11;36.43;101179.00;4952140;28;97085;-89
2022/03/13 01:07:09;;;;;;;51.43;23.57;;;;;;;3.23;36.24;101187.72;4941772;28;100331;-90
2022/03/13 01:09:36;;;;;;;55.07;22.80;;;;;;;3.21;35.86;101176.47;4959239;28;101347;-90
2022/03/13 01:12:03;;;;;;;45.17;21.83;;;;;;;3.09;35.83;101159.94;4993559;28;96842;-90
2022/03/13 01:14:29;;;;;;;53.37;22.73;;;;;;;3.12;36.19;101174.66;4991545;28;96868;-91
2022/03/13 01:17:06;;;;;;;55.60;23.87;;;;;;;3.10;36.26;101178.97;4955511;28;101673;-90
2022/03/13 01:19:32;;;;;;;48.50;21.27;;;;;;;2.80;36.43;101125.91;5004384;28;98385;-90
2022/03/13 01:21:58;;;;;;;46.90;21.23;;;;;;;3.02;36.38;101145.16;4960769;28;97065;-89
2022/03/13 01:24:28;;;;;;;50.00;22.40;;;;;;;3.20;36.24;101178.22;4972231;28;96847;-90
2022/03/13 01:26:57;;;;;;;51.80;23.70;;;;;;;3.27;36.15;101180.00;4984293;28;99050;-90
2022/03/13 01:29:23;;;;;;;48.37;22.40;;;;;;;3.13;35.92;101171.22;4982906;28;97854;-90
2022/03/13 01:31:49;;;;;;;50.97;22.83;;;;;;;3.04;36.23;101164.19;5016484;28;96756;-90
2022/03/13 01:34:34;;;;;;;51.10;23.40;;;;;;;2.98;36.30;101171.94;4979640;28;96855;-89
2022/03/13 01:37:01;;;;;;;52.90;23.07;;;;;;;2.91;36.33;101164.94;4998849;28;98284;-90
2022/03/13 01:39:27;;;;;;;45.50;22.97;;;;;;;3.05;36.70;101178.03;4961311;28;102058;-90
2022/03/13 01:41:56;;;;;;;51.60;23.30;;;;;;;3.03;36.57;101178.03;4986826;28;96764;-89
2022/03/13 01:44:21;;;;;;;50.03;23.90;;;;;;;2.72;36.82;101132.75;4995442;28;97190;-89
2022/03/13 01:46:47;;;;;;;54.33;22.50;;;;;;;2.81;36.49;101142.34;4966284;28;97399;-90
2022/03/13 01:49:16;;;;;;;47.57;22.03;;;;;;;2.98;36.69;101164.13;4984939;28;97367;-90
2022/03/13 01:51:41;;;;;;;48.87;21.70;;;;;;;2.97;36.50;101151.16;5001986;28;97798;-90
2022/03/13 01:54:09;;;;;;;54.67;22.57;;;;;;;2.94;36.83;101160.66;4977265;28;97214;-89
2022/03/13 01:56:36;;;;;;;52.27;23.33;;;;;;;3.05;36.79;101155.56;4949408;28;101251;-90
2022/03/13 01:59:03;;;;;;;51.73;22.13;;;;;;;3.04;36.82;101161.59;4989428;28;101199;-89
2022/03/13 02:01:29;;;;;;;54.47;23.57;;;;;;;3.02;36.39;101152.06;4979019;28;97065;-90
2022/03/13 02:03:55;;;;;;;44.50;20.33;;;;;;;2.99;36.71;101155.50;4975347;28;97014;-89
2022/03/13 02:06:26;;;;;;;47.17;20.97;;;;;;;2.91;36.76;101154.56;5000587;28;101548;-90
2022/03/13 02:08:54;;;;;;;47.83;23.53;;;;;;;2.84;36.91;101148.44;4982858;28;101970;-90
2022/03/13 02:11:24;;;;;;;41.30;20.13;;;;;;;2.90;37.12;101153.69;4999826;28;97577;-90
2022/03/13 02:13:52;;;;;;;45.17;20.73;;;;;;;2.58;37.27;101118.75;4972956;28;96773;-89
2022/03/13 02:16:19;;;;;;;42.77;20.93;;;;;;;2.77;37.24;101146.63;5002783;28;97003;-88
2022/03/13 02:18:49;;;;;;;50.37;21.87;;;;;;;2.59;37.58;101133.44;4977651;28;100966;-88
2022/03/13 02:21:16;;;;;;;46.27;20.87;;;;;;;2.68;37.48;101143.94;4997149;28;96763;-90
2022/03/13 02:23:43;;;;;;;54.20;22.03;;;;;;;2.39;37.39;101089.19;4983612;28;96754;-90
2022/03/13 02:26:09;;;;;;;46.90;20.37;;;;;;;2.79;37.27;101139.72;4980037;28;101295;-90
2022/03/13 02:28:48;;;;;;;42.77;19.60;;;;;;;2.74;37.43;101144.00;4979638;28;101920;-91
2022/03/13 02:31:19;;;;;;;43.73;18.87;;;;;;;2.56;37.66;101107.50;4973747;28;96963;-89
2022/03/13 02:33:45;;;;;;;44.88;19.95;;;;;;;2.78;37.45;101140.59;4991957;28;97596;-90
2022/03/13 02:36:33;;;;;;;44.90;21.57;;;;;;;2.77;36.96;101138.00;4984617;28;101217;-89
2022/03/13 02:39:03;;;;;;;44.17;19.97;;;;;;;2.70;37.59;101145.66;5000352;28;100783;-90
2022/03/13 02:41:29;;;;;;;46.27;21.17;;;;;;;2.63;37.41;101141.28;4991208;28;96791;-90
2022/03/13 02:43:56;;;;;;;43.13;21.37;;;;;;;2.47;37.31;101114.34;5013115;28;97107;-90
2022/03/13 02:46:24;;;;;;;45.87;20.93;;;;;;;2.59;37.49;101136.94;4989211;28;101335;-89
2022/03/13 02:48:51;;;;;;;49.27;21.20;;;;;;;2.58;37.76;101135.16;4993720;28;100018;-90
2022/03/13 02:51:17;;;;;;;49.60;22.17;;;;;;;2.54;37.22;101129.94;4993366;28;97018;-90
2022/03/13 02:53:43;;;;;;;51.23;21.93;;;;;;;2.51;37.36;101125.59;4988032;28;96932;-90
2022/03/13 02:56:09;;;;;;;46.73;22.27;;;;;;;2.48;37.52;101136.78;5014664;28;98074;-89
2022/03/13 02:58:35;;;;;;;46.40;22.70;;;;;;;2.47;37.33;101135.06;4999532;28;101407;-90
2022/03/13 03:01:01;;;;;;;45.93;19.97;;;;;;;2.33;37.82;101134.03;5013151;28;97145;-89
2022/03/13 03:03:26;;;;;;;46.47;21.73;;;;;;;2.26;38.13;101125.28;4986253;28;97059;-89
2022/03/13 03:05:53;;;;;;;47.40;21.60;;;;;;;2.36;37.42;101140.97;5000363;28;97714;-90
2022/03/13 03:08:19;;;;;;;49.13;21.97;;;;;;;2.35;37.62;101139.22;5010014;28;97643;-90
2022/03/13 03:10:45;;;;;;;45.80;19.73;;;;;;;2.24;37.71;101137.38;4999727;28;97115;-89
2022/03/13 03:13:11;;;;;;;51.97;21.60;;;;;;;2.16;37.72;101143.31;4997764;28;97545;-89
2022/03/13 03:15:38;;;;;;;47.20;21.97;;;;;;;1.98;37.93;101099.91;4983906;28;101667;-90
2022/03/13 03:18:04;;;;;;;45.73;20.73;;;;;;;2.21;37.97;101142.50;5008848;28;97278;-90
2022/03/13 03:20:30;;;;;;;43.17;20.17;;;;;;;2.26;37.92;101132.19;4996679;28;97134;-89
2022/03/13 03:22:55;;;;;;;40.80;19.70;;;;;;;2.29;37.28;101136.53;4997990;28;96996;-89
2022/03/13 03:25:26;;;;;;;39.70;18.17;;;;;;;2.21;37.28;101106.25;4983872;28;101528;-90
2022/03/13 03:27:53;;;;;;;44.30;19.73;;;;;;;2.29;37.64;101127.03;4970495;28;100028;-89
2022/03/13 03:30:23;;;;;;;38.67;18.30;;;;;;;2.38;37.39;101137.53;4996724;28;96634;-90
2022/03/13 03:32:49;;;;;;;45.10;18.17;;;;;;;2.43;37.16;101132.41;4997424;28;97077;-90
2022/03/13 03:35:23;;;;;;;44.70;19.77;;;;;;;2.35;37.45;101139.22;4962532;28;101531;-90
2022/03/13 03:37:50;;;;;;;43.50;18.50;;;;;;;2.40;37.13;101140.16;4992288;28;97513;-91
2022/03/13 03:40:16;;;;;;;39.13;18.10;;;;;;;2.43;37.39;101137.59;4993968;28;97217;-89
2022/03/13 03:42:43;;;;;;;40.77;18.47;;;;;;;2.25;37.62;101107.16;4976595;28;97014;-90
2022/03/13 03:45:09;;;;;;;41.63;20.83;;;;;;;2.36;37.56;101120.25;4984069;28;101769;-89
2022/03/13 03:47:35;;;;;;;43.03;17.07;;;;;;;2.37;37.70;101129.75;4987768;28;101345;-91
2022/03/13 03:50:00;;;;;;;40.60;17.87;;;;;;;2.29;37.75;101140.00;4986085;28;96717;-90
2022/03/13 03:52:28;;;;;;;39.33;17.97;;;;;;;2.30;37.38;101131.41;4980316;28;96969;-90
2022/03/13 03:54:53;;;;;;;36.80;17.93;;;;;;;2.23;37.70;101124.38;4996982;28;97994;-89
2022/03/13 03:57:19;;;;;;;42.50;18.07;;;;;;;2.10;37.44;101096.59;4987291;28;98361;-90
2022/03/13 03:59:45;;;;;;;41.27;18.90;;;;;;;2.20;37.60;101111.38;5009334;28;96926;-90
2022/03/13 04:02:11;;;;;;;39.90;17.27;;;;;;;2.21;37.60;101121.78;4990085;28;96964;-89
2022/03/13 04:04:36;;;;;;;40.27;17.87;;;;;;;2.02;38.12;101114.63;4995703;28;97367;-89
2022/03/13 04:07:02;;;;;;;38.97;18.13;;;;;;;2.09;37.88;101141.47;4981469;28;101522;-90
2022/03/13 04:09:27;;;;;;;37.40;16.70;;;;;;;1.97;37.95;101109.34;5017470;28;97313;-90
2022/03/13 04:11:53;;;;;;;44.80;18.80;;;;;;;2.06;37.71;101126.75;4999820;28;96753;-90
2022/03/13 04:14:20;;;;;;;41.60;18.53;;;;;;;1.85;37.65;101103.16;4998936;28;97503;-90
2022/03/13 04:16:46;;;;;;;36.93;17.47;;;;;;;2.04;38.08;101133.66;4985581;28;101444;-89
2022/03/13 04:19:12;;;;;;;36.43;16.37;;;;;;;1.87;38.32;101120.47;5012151;28;97190;-89
2022/03/13 04:21:40;;;;;;;43.33;18.97;;;;;;;1.78;38.26;101100.47;4957800;28;96802;-91
2022/03/13 04:24:07;;;;;;;32.90;15.93;;;;;;;1.98;38.31;101139.59;4954731;28;101691;-89
2022/03/13 04:26:32;;;;;;;38.27;16.97;;;;;;;2.02;37.93;101131.03;4941347;28;97420;-90
2022/03/13 04:28:58;;;;;;;41.83;16.60;;;;;;;2.04;38.30;101138.81;4950441;28;96650;-90
2022/03/13 04:31:24;;;;;;;40.07;17.73;;;;;;;2.04;38.03;101133.66;4950739;28;96844;-89
2022/03/13 04:33:52;;;;;;;37.70;16.00;;;;;;;1.81;38.75;101112.59;4969140;28;98032;-90
2022/03/13 04:36:21;;;;;;;38.97;16.23;;;;;;;1.99;38.58;101140.47;4932081;28;99752;-90
2022/03/13 04:38:47;;;;;;;36.40;16.80;;;;;;;1.76;38.61;101109.94;4959431;28;96948;-89
2022/03/13 04:41:13;;;;;;;37.07;17.17;;;;;;;1.94;38.54;101134.34;4959429;28;96886;-90
2022/03/13 04:43:38;;;;;;;31.83;16.50;;;;;;;1.95;38.23;101129.22;4958807;28;101449;-89
2022/03/13 04:46:04;;;;;;;38.83;16.50;;;;;;;1.90;38.78;101132.56;4958495;28;100902;-90
2022/03/13 04:48:32;;;;;;;37.57;16.40;;;;;;;1.90;38.76;101130.84;4976539;28;97215;-89
2022/03/13 04:50:59;;;;;;;41.53;16.97;;;;;;;1.67;38.76;101093.41;4964244;28;98223;-90
2022/03/13 04:53:24;;;;;;;36.80;15.73;;;;;;;1.90;38.29;101142.94;4955777;28;101055;-89
2022/03/13 04:55:50;;;;;;;39.57;18.07;;;;;;;1.83;38.62;101139.38;4929667;28;101038;-89
2022/03/13 04:58:16;;;;;;;35.80;17.03;;;;;;;1.82;39.23;101132.47;4999747;28;96909;-90
2022/03/13 05:00:42;;;;;;;37.83;16.73;;;;;;;1.84;39.24;101124.72;4972648;28;96754;-89
2022/03/13 05:03:10;;;;;;;40.10;17.83;;;;;;;1.80;38.85;101127.28;4959771;28;98068;-89
2022/03/13 05:05:36;;;;;;;36.37;16.90;;;;;;;1.85;39.00;101142.84;4943751;28;99914;-90
2022/03/13 05:08:04;;;;;;;36.17;17.13;;;;;;;1.74;39.19;101134.91;4948594;28;96840;-89
2022/03/13 05:10:36;;;;;;;34.13;16.73;;;;;;;1.74;38.76;101139.22;4950161;28;97245;-90
2022/03/13 05:13:08;;;;;;;34.57;16.60;;;;;;;1.68;39.05;101132.25;4959300;28;101800;-89
2022/03/13 05:15:34;;;;;;;37.60;16.30;;;;;;;1.63;39.09;101126.16;4959401;28;101330;-90
2022/03/13 05:18:01;;;;;;;35.87;17.10;;;;;;;1.77;39.48;101136.69;4946089;28;97318;-89
2022/03/13 05:20:27;;;;;;;39.23;16.43;;;;;;;1.77;38.65;101139.28;4968612;28;97318;-89
2022/03/13 05:22:54;;;;;;;37.23;16.97;;;;;;;1.66;38.94;101118.44;4969221;28;101285;-89
2022/03/13 05:25:19;;;;;;;37.43;16.43;;;;;;;1.83;38.86;101136.78;4955992;28;101216;-90
2022/03/13 05:27:45;;;;;;;38.10;16.53;;;;;;;1.78;38.76;101139.31;4947244;28;97105;-90
2022/03/13 05:30:11;;;;;;;40.77;16.73;;;;;;;1.80;38.83;101149.69;4988032;28;97423;-90
2022/03/13 05:32:38;;;;;;;38.33;17.77;;;;;;;1.66;39.25;101117.53;5020613;28;98575;-89
2022/03/13 05:35:04;;;;;;;36.90;17.23;;;;;;;1.76;39.48;101168.63;4976971;28;101111;-90
2022/03/13 05:37:29;;;;;;;36.23;17.33;;;;;;;1.60;39.48;101144.22;5018038;28;97200;-89
2022/03/13 05:39:55;;;;;;;40.90;17.50;;;;;;;1.68;39.45;101154.69;4982365;28;97527;-90
2022/03/13 05:42:24;;;;;;;36.97;16.40;;;;;;;1.63;39.13;101149.44;5019439;28;100229;-90
2022/03/13 05:44:51;;;;;;;37.20;16.37;;;;;;;1.83;38.96;101169.56;4991293;28;101386;-89
2022/03/13 05:47:18;;;;;;;41.33;18.17;;;;;;;1.64;38.64;101139.97;4984255;28;97038;-90
2022/03/13 05:49:44;;;;;;;39.13;17.27;;;;;;;1.80;38.83;101173.88;4987113;28;96762;-90
2022/03/13 05:52:15;;;;;;;33.00;16.53;;;;;;;1.79;38.53;101173.84;5008221;28;97943;-89
2022/03/13 05:54:42;;;;;;;35.40;16.70;;;;;;;1.79;39.09;101174.69;5006428;28;98483;-90
2022/03/13 05:57:09;;;;;;;33.17;15.33;;;;;;;1.76;38.92;101163.44;4992185;28;97097;-90
2022/03/13 05:59:36;;;;;;;39.07;16.97;;;;;;;1.85;39.33;101167.88;4993323;28;97161;-91
2022/03/13 06:02:04;;;;;;;33.10;16.90;;;;;;;1.94;38.59;101168.88;4996326;28;100795;-90
2022/03/13 06:04:39;;;;;;;33.93;16.50;;;;;;;1.94;38.44;101180.97;4992515;28;101267;-89
2022/03/13 06:07:05;;;;;;;33.77;16.57;;;;;;;1.97;38.97;101183.59;4985832;28;96641;-89
2022/03/13 06:09:31;;;;;;;36.00;16.10;;;;;;;1.61;38.89;101124.38;4979321;28;97966;-89
2022/03/13 06:11:58;;;;;;;35.43;15.57;;;;;;;2.10;38.91;101182.94;4999014;28;97338;-90
2022/03/13 06:14:23;;;;;;;38.33;16.83;;;;;;;2.25;38.83;101175.38;4971498;28;101665;-90
2022/03/13 06:16:49;;;;;;;33.73;15.90;;;;;;;2.56;38.34;101180.06;4968128;28;97281;-89
2022/03/13 06:19:15;;;;;;;40.83;16.80;;;;;;;2.70;38.52;101181.09;4971460;28;96893;-87
2022/03/13 06:21:41;;;;;;;30.73;15.50;;;;;;;2.84;38.71;101182.13;4963156;28;101580;-89
2022/03/13 06:24:07;;;;;;;35.07;16.17;;;;;;;3.13;38.58;101184.19;4940240;28;101135;-89
2022/03/13 06:26:34;;;;;;;33.97;15.07;;;;;;;3.40;37.71;101181.88;4953402;28;97197;-90
2022/03/13 06:29:01;;;;;;;34.43;15.80;;;;;;;3.51;37.39;101179.34;4964497;28;96901;-90
2022/03/13 06:31:26;;;;;;;34.23;16.60;;;;;;;3.61;36.88;101178.56;4977851;28;97228;-88
2022/03/13 06:33:52;;;;;;;31.53;15.17;;;;;;;3.69;37.53;101160.44;4944949;28;100783;-90
2022/03/13 06:36:17;;;;;;;40.87;17.43;;;;;;;3.63;36.49;101169.03;4961673;28;96759;-90
2022/03/13 06:38:43;;;;;;;32.83;15.10;;;;;;;3.91;36.61;101186.59;4967027;28;96874;-89
2022/03/13 06:41:08;;;;;;;34.83;15.43;;;;;;;3.71;36.40;101129.31;4966263;28;96786;-90
2022/03/13 06:43:34;;;;;;;31.37;14.97;;;;;;;4.27;35.94;101181.59;4961659;28;101596;-90
2022/03/13 06:46:02;;;;;;;33.77;14.93;;;;;;;4.35;36.25;101188.59;4960546;28;97175;-90
2022/03/13 06:48:27;;;;;;;31.93;15.03;;;;;;;4.39;35.94;101183.38;4962057;28;96946;-88
2022/03/13 06:50:56;;;;;;;29.87;14.20;;;;;;;4.71;35.48;101193.97;4977815;28;97088;-89
2022/03/13 06:53:22;;;;;;;35.43;16.00;;;;;;;4.81;35.26;101200.06;4961363;28;100811;-90
2022/03/13 06:55:49;;;;;;;36.00;15.33;;;;;;;4.98;35.31;101203.59;4945166;28;96719;-89
2022/03/13 06:58:14;;;;;;;30.70;15.13;;;;;;;5.03;34.69;101194.91;4962870;28;96799;-90
2022/03/13 07:00:40;;;;;;;27.43;13.17;;;;;;;5.03;34.44;101174.94;4948039;28;100962;-91
2022/03/13 07:03:07;;;;;;;25.33;12.83;;;;;;;5.35;34.32;101210.59;4970151;28;100439;-89
2022/03/13 07:05:33;;;;;;;25.03;12.87;;;;;;;5.18;34.25;101148.13;4988758;28;96731;-89
2022/03/13 07:07:58;;;;;;;27.93;13.60;;;;;;;5.75;33.43;101221.06;4974944;28;97175;-89
2022/03/13 07:10:24;;;;;;;29.10;13.17;;;;;;;5.72;32.73;101197.59;4988428;28;98647;-90
2022/03/13 07:12:50;;;;;;;26.27;12.90;;;;;;;5.98;33.66;101214.13;4955812;28;101618;-89
2022/03/13 07:15:16;;;;;;;25.50;13.10;;;;;;;6.13;32.85;101205.41;4969492;28;96950;-90
2022/03/13 07:17:43;;;;;;;25.27;12.63;;;;;;;6.32;32.86;101203.66;4952671;28;97522;-90
2022/03/13 07:20:09;;;;;;;25.60;13.30;;;;;;;6.38;32.28;101193.19;4927262;28;100928;-87
2022/03/13 07:22:35;;;;;;;25.37;12.40;;;;;;;6.57;31.76;101188.78;4974047;28;101110;-87
2022/03/13 07:25:00;;;;;;;23.00;13.13;;;;;;;6.80;31.58;101197.38;4974293;28;96777;-86
2022/03/13 07:27:26;;;;;;;26.17;12.50;;;;;;;6.99;31.63;101200.78;4991051;28;96809;-84
2022/03/13 07:29:52;;;;;;;22.37;12.33;;;;;;;7.19;31.29;101200.66;4988765;28;97536;-84
2022/03/13 07:32:18;;;;;;;23.03;11.70;;;;;;;7.30;30.21;101198.00;4958905;28;98205;-85
2022/03/13 07:34:43;;;;;;;21.17;11.50;;;;;;;7.33;30.37;101210.13;4972103;28;96713;-82
2022/03/13 07:37:12;;;;;;;27.77;12.83;;;;;;;7.47;31.39;101206.56;4958449;28;97179;-85
2022/03/13 07:39:41;;;;;;;23.23;11.93;;;;;;;7.75;31.14;101211.59;4945484;28;101478;-87
2022/03/13 07:42:12;;;;;;;24.97;12.70;;;;;;;8.04;30.43;101213.94;4990578;28;99259;-87
2022/03/13 07:44:37;;;;;;;23.97;12.07;;;;;;;8.10;30.11;101200.81;4968340;28;97000;-87
2022/03/13 07:47:03;;;;;;;23.20;13.03;;;;;;;8.09;29.92;101172.94;4941524;28;98070;-86
2022/03/13 07:49:29;;;;;;;23.83;13.05;;;;;;;8.52;29.60;101203.88;4987700;28;100151;-85
2022/03/13 07:51:54;;;;;;;21.60;12.43;;;;;;;8.71;29.82;101198.44;5002903;28;97654;-86
2022/03/13 07:54:20;;;;;;;25.63;12.27;;;;;;;8.98;28.85;101202.44;4974059;28;97257;-86
2022/03/13 07:56:46;;;;;;;25.95;13.40;;;;;;;9.05;29.08;101214.56;4985854;28;97370;-86
2022/03/13 07:59:12;;;;;;;22.40;11.90;;;;;;;9.28;28.67;101206.41;4953013;28;98896;-85
2022/03/13 08:01:37;;;;;;;28.10;13.35;;;;;;;9.56;28.67;101214.69;4978287;28;101207;-86
2022/03/13 08:04:05;;;;;;;24.98;12.82;;;;;;;9.85;28.26;101208.97;4958328;28;97307;-87
2022/03/13 08:06:36;;;;;;;25.15;12.73;;;;;;;9.94;27.49;101207.94;4949649;28;96907;-85
2022/03/13 08:09:06;;;;;;;23.35;13.10;;;;;;;9.93;27.73;101191.34;4978980;28;98097;-85
2022/03/13 08:11:34;;;;;;;25.15;13.65;;;;;;;10.21;27.51;101190.88;4984210;28;97401;-85
2022/03/13 08:14:01;;;;;;;21.35;12.30;;;;;;;10.43;27.26;101197.44;4973269;28;97018;-85
2022/03/13 08:16:29;;;;;;;20.05;12.02;;;;;;;10.53;26.66;101185.03;4968907;28;97575;-84
2022/03/13 08:18:55;;;;;;;22.70;13.30;;;;;;;10.83;26.41;101196.63;4972782;28;98159;-85
2022/03/13 08:21:21;;;;;;;21.90;12.95;;;;;;;10.64;25.88;101201.38;4933715;28;100357;-86
2022/03/13 08:23:46;;;;;;;23.65;12.95;;;;;;;10.67;26.21;101175.97;4972727;28;97032;-86
2022/03/13 08:26:12;;;;;;;28.15;14.18;;;;;;;11.06;26.43;101192.66;4979012;28;96995;-85
2022/03/13 08:28:40;;;;;;;28.02;13.95;;;;;;;11.13;26.04;101182.88;4961658;28;101248;-86
2022/03/13 08:31:07;;;;;;;27.70;14.68;;;;;;;11.44;26.00;101189.16;4964214;28;101410;-87
2022/03/13 08:33:33;;;;;;;24.17;13.77;;;;;;;11.64;25.65;101187.81;4953140;28;97132;-85
2022/03/13 08:35:58;;;;;;;26.40;14.27;;;;;;;11.83;25.82;101190.81;4986421;28;97088;-84
2022/03/13 08:38:24;;;;;;;22.73;13.25;;;;;;;11.62;25.39;101158.91;4941760;28;101211;-86
2022/03/13 08:40:49;;;;;;;24.70;14.02;;;;;;;11.73;25.70;101180.53;4987488;28;100311;-85
2022/03/13 08:43:15;;;;;;;24.27;14.13;;;;;;;11.89;25.56;101173.13;4972070;28;97251;-85
2022/03/13 08:45:40;;;;;;;21.05;13.05;;;;;;;12.13;25.48;101176.03;4968864;28;96951;-88
2022/03/13 08:48:06;;;;;;;24.60;13.45;;;;;;;12.26;25.05;101177.44;4968544;28;97917;-84
2022/03/13 08:50:32;;;;;;;24.08;12.95;;;;;;;12.33;25.26;101168.44;4986067;28;101427;-84
2022/03/13 08:52:58;;;;;;;25.88;13.60;;;;;;;12.61;25.41;101165.91;4972769;28;97048;-84
2022/03/13 08:55:24;;;;;;;23.08;13.25;;;;;;;12.71;24.80;101176.16;5008462;28;97340;-81
2022/03/13 08:57:50;;;;;;;22.55;12.77;;;;;;;12.91;24.48;101176.44;4985271;28;101924;-79
2022/03/13 09:00:17;;;;;;;22.70;12.27;;;;;;;13.02;24.27;101155.03;4958944;28;100014;-83
2022/03/13 09:02:44;;;;;;;18.55;11.38;;;;;;;13.38;23.78;101166.25;4967560;28;97212;-81
2022/03/13 09:05:10;;;;;;;18.30;11.75;;;;;;;13.66;23.64;101162.69;4969906;28;97484;-79
2022/03/13 09:07:36;;;;;;;21.77;11.82;;;;;;;13.61;23.36;101161.97;4940014;28;101691;-80
2022/03/13 09:10:04;;;;;;;19.10;11.40;;;;;;;13.58;23.28;101141.81;5019493;27;97790;-83
2022/03/13 09:12:31;;;;;;;21.73;11.20;;;;;;;14.08;22.83;101160.34;4965709;28;96827;-79
2022/03/13 09:14:58;;;;;;;23.75;12.13;;;;;;;14.41;23.04;101158.28;4965425;28;97498;-82
2022/03/13 09:17:23;;;;;;;22.40;11.38;;;;;;;14.60;21.94;101184.03;4957405;28;98179;-80
2022/03/13 09:19:49;;;;;;;18.45;11.50;;;;;;;14.23;21.93;101165.09;4969469;28;98065;-84
2022/03/13 09:22:17;;;;;;;19.92;10.82;;;;;;;14.25;21.97;101146.53;4959561;28;96970;-85
2022/03/13 09:24:45;;;;;;;15.00;9.40;;;;;;;14.20;21.27;101132.66;4965366;28;97325;-83
2022/03/13 09:27:11;;;;;;;17.73;9.80;;;;;;;14.21;21.16;101139.66;4944611;28;101225;-84
2022/03/13 09:29:38;;;;;;;13.20;8.23;;;;;;;14.50;21.34;101147.34;4973293;28;101460;-84
2022/03/13 09:32:05;;;;;;;14.55;8.43;;;;;;;14.45;20.54;101141.38;4976055;28;97269;-86
2022/03/13 09:34:31;;;;;;;13.25;8.55;;;;;;;14.71;20.43;101147.50;4944580;28;97200;-82
2022/03/13 09:36:57;;;;;;;15.32;7.78;;;;;;;14.57;20.07;101157.72;4961591;28;98199;-82
2022/03/13 09:39:25;;;;;;;14.30;8.13;;;;;;;14.71;19.69;101150.16;4952662;28;101187;-83
2022/03/13 09:41:52;;;;;;;13.63;7.07;;;;;;;14.66;19.39;101146.81;4948189;28;96799;-84
2022/03/13 09:44:18;;;;;;;15.57;8.30;;;;;;;14.79;19.34;101140.16;4942646;28;97326;-83
2022/03/13 09:46:44;;;;;;;13.98;7.05;;;;;;;14.64;19.15;101135.47;4955817;28;101371;-84
2022/03/13 09:49:09;;;;;;;10.68;6.82;;;;;;;14.47;19.21;101149.25;4965373;28;101179;-84
2022/03/13 09:51:35;;;;;;;10.82;6.40;;;;;;;14.30;18.78;101141.94;5001390;28;96998;-86
2022/03/13 09:54:02;;;;;;;16.63;7.05;;;;;;;14.12;19.32;101151.41;4969971;28;97343;-85
2022/03/13 09:56:27;;;;;;;15.57;7.90;;;;;;;14.00;19.23;101133.38;4997471;28;101487;-85
2022/03/13 09:58:53;;;;;;;15.88;7.32;;;;;;;14.31;19.33;101156.00;4987600;28;100559;-85
2022/03/13 10:01:19;;;;;;;12.20;7.70;;;;;;;14.39;19.67;101135.47;4977351;28;97171;-85
2022/03/13 10:03:44;;;;;;;14.05;8.05;;;;;;;14.36;19.71;101114.44;4987023;28;97588;-86
2022/03/13 10:06:11;;;;;;;11.80;7.47;;;;;;;14.42;19.34;101098.38;5018711;27;98438;-85
2022/03/13 10:08:39;;;;;;;12.23;7.57;;;;;;;14.50;19.40;101126.22;4971521;28;101869;-85
2022/03/13 10:11:04;;;;;;;16.45;8.55;;;;;;;14.55;19.76;101134.03;4973211;28;97329;-85
2022/03/13 10:13:40;;;;;;;15.15;6.97;;;;;;;14.94;19.23;101154.53;4972610;28;96805;-85
2022/03/13 10:16:08;;;;;;;15.27;7.05;;;;;;;14.71;18.79;101129.84;4972635;28;98104;-86
2022/03/13 10:18:34;;;;;;;11.95;7.10;;;;;;;14.87;18.72;101129.28;4994864;28;100081;-85
2022/03/13 10:21:08;;;;;;;9.60;6.57;;;;;;;14.75;18.75;101130.63;5005486;28;97370;-85
2022/03/13 10:23:34;;;;;;;15.55;8.23;;;;;;;14.60;19.32;101117.97;4986752;28;97532;-85
2022/03/13 10:26:00;;;;;;;14.25;7.60;;;;;;;14.58;19.01;101128.63;4973973;28;97952;-85
2022/03/13 10:28:28;;;;;;;10.25;6.60;;;;;;;14.53;19.32;101141.13;4957192;28;99423;-85
2022/03/13 10:31:00;;;;;;;11.27;6.55;;;;;;;14.47;19.64;101147.47;4986513;28;96964;-85
2022/03/13 10:33:26;;;;;;;;;;;;;;;14.18;19.30;101130.06;4990533;28;97096;-84
2022/03/13 10:36:14;;;;;;;17.60;9.85;;;;;;;14.23;19.61;101119.34;4991660;28;101184;-85
2022/03/13 10:38:42;;;;;;;12.20;6.72;;;;;;;14.32;19.24;101124.28;4962157;28;97881;-84
2022/03/13 10:41:12;;;;;;;15.65;7.35;;;;;;;14.14;18.99;101152.22;4990912;28;96881;-85
2022/03/13 10:43:57;;;;;;;12.82;6.93;;;;;;;13.90;19.51;101142.50;4989726;28;97044;-85
2022/03/13 10:46:31;;;;;;;15.52;7.72;;;;;;;13.75;19.78;101139.47;4984172;28;98159;-85
2022/03/13 10:48:58;;;;;;;14.23;7.45;;;;;;;13.69;19.93;101133.56;4992822;28;99711;-85
2022/03/13 10:51:35;;;;;;;23.33;10.20;;;;;;;13.33;19.86;101152.34;4983622;28;97118;-86
2022/03/13 10:54:03;;;;;;;16.65;8.70;;;;;;;13.33;20.13;101139.16;4964226;28;97463;-87
2022/03/13 10:56:28;;;;;;;36.40;13.93;;;;;;;13.10;20.09;101101.16;4964156;28;101553;-87
2022/03/13 10:58:54;;;;;;;28.40;12.65;;;;;;;12.93;20.21;101097.34;4982451;28;100196;-87
2022/03/13 11:01:22;;;;;;;11.60;7.00;;;;;;;12.75;20.31;101104.91;4984976;28;97200;-87
2022/03/13 11:03:52;;;;;;;15.70;8.20;;;;;;;12.64;20.69;101109.63;4967480;28;97400;-88
2022/03/13 11:06:19;;;;;;;10.77;7.50;;;;;;;12.75;20.93;101118.09;4984052;28;101934;-88
2022/03/13 11:08:45;;;;;;;14.50;7.68;;;;;;;12.75;20.85;101122.50;4968082;28;101517;-88
2022/03/13 11:11:15;;;;;;;13.07;8.13;;;;;;;12.60;20.92;101103.59;4980239;28;96816;-88
2022/03/13 11:13:42;;;;;;;12.85;8.25;;;;;;;12.56;21.25;101101.97;4975904;28;96918;-89